Pagrindinis puslapis
METAR-TAF:

METAR-TAF

Oro uostai :

Karpathos, Graikija

platuma: 35-24-51N, ilguma: 027-08-54E, Aukštis: 6 m

Dabartinis oras

Ataskaita buvo paskelbta 31 minutes, ne 02:50 UTC
Vėjas 4 kt iš Šiaurės, svyruoja nuo Šiaurės/Šiaurės Vakarų ir Pietryčių
Temperatūra 19°C
Drėgmė 83%
Slėgis 1015 hPa

METAR: LGKP 260250Z AUTO 35004KT 330V130 //// // ////// 19/16 Q1015 RE//

Laikas: 06:21 (03:21 UTC)

Prognozė

Ataskaita buvo paskelbta 1 valandą ir 21 minutes, ne 02:00 UTC
Prognozė galioja nuo 26 metu 03 UTC su 26 metu 12 UTC
Vėjas 115 kt iš Šiaurės Vakarų su gūsio iki 25 kt
Matomumas 10 km arba daugiau
Mažai debesys ne aukštis 2000 ft

TAF: LGKP 260200Z 2603/2612 310115G25KT 9999 FEW020

Orai ataskaitas ir orų prognozės (METAR, TAF).

turimą stotys yra geltonos ir raudonos taškus žemėlapyje.

Perkelti pele per norėdami pamatyti stoties vardą.

Tada spustelėkite, norėdami matyti oro stebėjimo ir prognozės.

Norėdami pakeisti žemėlapį: spustelėkite ant žalios mygtukų su juodo kryžiaus žemyn,; žalią mygtuką su brūkšneliu, jei norite nutolinti; arba žalių rodyklių gretimoms žemėlapius.


METAR-TAF: